Time;durP1;ratioP1;P1;durP2;ratioP2;P2;SDS_P1;SDS_P2;PMS_P1;PMS_P2;Temp;Humidity;BMP_temperature;BMP_pressure;BME280_temperature;BME280_humidity;BME280_pressure;Samples;Min_cycle;Max_cycle;Signal;HPM_P1;HPM_P2
2022/02/03 00:01:20;;;;;;;28.98;13.25;;;;;;;-4.71;64.76;99328.41;4988519;28;20048;-77
2022/02/03 00:03:52;;;;;;;24.48;12.10;;;;;;;-4.69;64.57;99331.00;4990261;28;20499;-77
2022/02/03 00:06:28;;;;;;;20.20;10.43;;;;;;;-4.78;64.19;99328.06;5000008;28;20085;-78
2022/02/03 00:09:27;;;;;;;24.45;9.68;;;;;;;-4.82;64.43;99336.34;5004644;28;20132;-77
2022/02/03 00:25:43;;;;;;;16.77;8.00;;;;;;;-5.37;63.21;99335.50;4990774;28;20037;-79
2022/02/03 00:35:50;;;;;;;24.63;11.10;;;;;;;-5.35;65.28;99342.41;5019220;28;20045;-77
2022/02/03 00:49:05;;;;;;;29.83;13.30;;;;;;;-5.34;64.71;99354.28;5010337;28;20072;-80
2022/02/03 00:51:31;;;;;;;38.47;18.48;;;;;;;-5.53;63.84;99347.44;4990649;28;20041;-77
2022/02/03 00:53:58;;;;;;;208.02;74.82;;;;;;;-5.85;63.91;99323.06;5004985;28;20174;-76
2022/02/03 00:56:47;;;;;;;193.48;67.30;;;;;;;-5.78;64.42;99347.94;5021479;28;20149;-78
2022/02/03 00:59:27;;;;;;;97.28;37.20;;;;;;;-5.93;64.53;99315.94;5003491;28;20052;-76
2022/02/03 01:01:58;;;;;;;43.88;19.42;;;;;;;-5.87;64.50;99328.06;5020759;28;20075;-79
2022/02/03 01:04:28;;;;;;;31.05;15.70;;;;;;;-5.78;65.06;99328.50;5003587;28;20042;-78
2022/02/03 01:06:57;;;;;;;27.52;13.43;;;;;;;-5.60;64.94;99347.94;4982393;28;20046;-80
2022/02/03 01:09:29;;;;;;;25.08;12.55;;;;;;;-5.57;65.16;99359.91;5001733;28;20041;-78
2022/02/03 01:12:36;;;;;;;32.50;16.90;;;;;;;-5.54;64.33;99368.53;5002582;28;20041;-79
2022/02/03 01:15:01;;;;;;;22.73;11.50;;;;;;;-5.67;64.85;99343.38;4982181;28;20046;-77
2022/02/03 01:17:47;;;;;;;24.45;11.55;;;;;;;-5.45;64.75;99368.09;5034983;28;20045;-78
2022/02/03 01:44:59;;;;;;;22.75;10.68;;;;;;;-5.33;63.83;99361.09;4998133;28;20151;-77
2022/02/03 01:52:30;;;;;;;18.27;9.25;;;;;;;-5.21;64.35;99381.13;5005283;28;20046;-77
2022/02/03 01:54:57;;;;;;;22.65;9.63;;;;;;;-5.39;64.66;99342.16;4994144;28;20087;-78
2022/02/03 01:57:34;;;;;;;24.08;10.45;;;;;;;-5.23;63.96;99361.53;5023728;28;20493;-77
2022/02/03 02:00:05;;;;;;;20.80;9.18;;;;;;;-5.27;64.08;99365.59;5025172;28;20049;-76
2022/02/03 02:03:22;;;;;;;20.50;9.20;;;;;;;-5.29;63.47;99368.03;5023128;28;20052;-78
2022/02/03 02:06:07;;;;;;;21.95;9.38;;;;;;;-5.03;64.58;99377.69;4928617;29;20419;-78
2022/02/03 02:08:43;;;;;;;27.38;11.82;;;;;;;-5.16;64.67;99361.88;4928650;29;20510;-77
2022/02/03 02:36:57;;;;;;;25.60;11.98;;;;;;;-4.61;63.94;99370.31;4999483;28;20057;-78
2022/02/03 02:42:45;;;;;;;36.03;14.53;;;;;;;-4.53;63.28;99385.88;4994343;28;20060;-76
2022/02/03 02:45:14;;;;;;;28.23;12.23;;;;;;;-4.50;63.68;99388.56;5009887;28;20045;-77
2022/02/03 02:48:24;;;;;;;27.33;11.98;;;;;;;-4.47;62.92;99387.81;4992090;28;20576;-77
2022/02/03 02:51:09;;;;;;;28.77;11.73;;;;;;;-4.55;63.04;99377.31;4935765;28;20062;-78
2022/02/03 03:02:35;;;;;;;19.50;9.77;;;;;;;-4.73;62.69;99367.19;4999470;28;20037;-77
2022/02/03 03:33:16;;;;;;;22.17;11.55;;;;;;;-4.88;62.77;99415.63;5004867;28;20094;-77
2022/02/03 03:35:42;;;;;;;26.00;12.07;;;;;;;-4.97;62.04;99408.44;5023049;28;20045;-78
2022/02/03 03:38:11;;;;;;;30.80;13.80;;;;;;;-4.95;62.34;99423.75;4989604;28;20041;-76
2022/02/03 03:40:40;;;;;;;24.83;12.45;;;;;;;-5.05;62.37;99417.38;4970752;28;21071;-77
2022/02/03 03:43:09;;;;;;;25.20;12.57;;;;;;;-5.09;62.53;99411.28;4985538;28;20120;-78
2022/02/03 03:45:38;;;;;;;25.02;11.38;;;;;;;-5.05;62.24;99417.38;4997907;28;20073;-78
2022/02/03 03:48:06;;;;;;;23.38;10.32;;;;;;;-5.11;62.40;99399.28;5002830;28;20040;-75
2022/02/03 03:50:38;;;;;;;27.48;12.70;;;;;;;-5.14;62.10;99407.66;5021790;28;20056;-76
2022/02/03 03:53:18;;;;;;;26.92;12.02;;;;;;;-5.11;62.80;99404.38;4990147;28;20615;-77
2022/02/03 04:51:22;;;;;;;25.90;10.02;;;;;;;-5.37;61.64;99454.72;5020956;28;20133;-77
2022/02/03 05:05:51;;;;;;;23.48;10.15;;;;;;;-5.36;62.19;99462.41;5017329;28;20046;-79
2022/02/03 05:11:28;;;;;;;26.05;11.20;;;;;;;-5.31;61.90;99460.09;5014108;28;20040;-77
2022/02/03 05:21:33;;;;;;;36.47;15.60;;;;;;;-5.47;62.12;99453.38;4995824;28;20058;-77
2022/02/03 05:26:15;;;;;;;47.35;18.08;;;;;;;-5.50;61.58;99456.66;5015050;28;20080;-75
2022/02/03 05:44:05;;;;;;;42.22;15.98;;;;;;;-5.84;61.88;99487.03;5032368;28;20048;-76
2022/02/03 05:46:57;;;;;;;36.63;18.15;;;;;;;-5.93;61.41;99470.53;5036431;28;20053;-78
2022/02/03 05:52:35;;;;;;;42.75;17.95;;;;;;;-6.01;62.13;99459.19;5026531;28;20038;-77
2022/02/03 06:24:33;;;;;;;41.90;19.98;;;;;;;-3.96;60.88;99489.19;4996537;28;20091;-79
2022/02/03 06:29:50;;;;;;;47.40;21.67;;;;;;;-3.65;60.32;99471.06;5011075;28;20468;-77
2022/02/03 06:32:16;;;;;;;;;;;;;;;-3.23;60.24;99492.31;4998916;28;20042;-79
2022/02/03 06:34:42;;;;;;;34.85;18.52;;;;;;;-3.05;59.94;99485.44;5009839;28;19968;-80
2022/02/03 06:37:09;;;;;;;44.90;20.17;;;;;;;-3.08;59.69;99461.50;4990410;28;20044;-79
2022/02/03 06:39:35;;;;;;;39.75;20.50;;;;;;;-2.79;59.55;99498.34;4990636;28;20049;-80
2022/02/03 06:42:02;;;;;;;39.88;19.90;;;;;;;-2.62;59.55;99491.34;5006056;28;20037;-80
2022/02/03 06:44:35;;;;;;;49.55;24.02;;;;;;;-2.36;59.32;99488.09;5006629;28;20041;-79
2022/02/03 06:47:15;;;;;;;46.05;23.08;;;;;;;-2.23;59.25;99467.34;4973749;28;20444;-78
2022/02/03 06:49:57;;;;;;;50.90;23.58;;;;;;;-2.00;58.67;99429.94;5012074;28;20071;-79
2022/02/03 06:57:56;;;;;;;33.72;17.77;;;;;;;-0.41;58.19;99432.47;4996216;28;20208;-79
2022/02/03 07:00:33;;;;;;;31.25;16.25;;;;;;;0.35;57.25;99452.47;4986953;28;20041;-78
2022/02/03 07:03:01;;;;;;;37.67;18.83;;;;;;;1.12;57.28;99459.56;5009369;28;20045;-76
2022/02/03 07:05:27;;;;;;;34.92;17.30;;;;;;;1.72;56.83;99454.91;5008507;28;20560;-79
2022/02/03 07:07:54;;;;;;;33.95;16.10;;;;;;;1.85;55.80;99442.38;4980985;28;20047;-80
2022/02/03 07:10:21;;;;;;;39.92;19.13;;;;;;;1.78;54.96;99436.22;4997512;28;20033;-77
2022/02/03 07:12:47;;;;;;;35.92;18.17;;;;;;;1.74;55.10;99450.69;5025522;28;20082;-77
2022/02/03 07:15:13;;;;;;;28.88;15.10;;;;;;;1.48;55.02;99433.03;5002659;28;20722;-77
2022/02/03 07:17:40;;;;;;;35.25;16.58;;;;;;;1.24;54.12;99441.03;5014476;28;20045;-78
2022/02/03 07:20:12;;;;;;;39.15;20.30;;;;;;;0.95;54.04;99460.88;4992298;28;20037;-77
2022/02/03 07:22:41;;;;;;;35.90;18.65;;;;;;;0.71;54.13;99479.91;4974900;28;20132;-76
2022/02/03 07:25:09;;;;;;;41.53;21.00;;;;;;;0.40;54.06;99463.72;5004239;28;20043;-78
2022/02/03 07:27:45;;;;;;;44.63;20.73;;;;;;;0.50;54.63;99486.19;5005420;28;20041;-80
2022/02/03 07:30:20;;;;;;;39.05;20.20;;;;;;;0.50;53.93;99488.75;4995433;28;20065;-76
2022/02/03 07:32:45;;;;;;;42.35;21.10;;;;;;;0.58;53.72;99481.28;4995978;28;20037;-78
2022/02/03 07:35:11;;;;;;;46.20;22.05;;;;;;;0.63;54.55;99489.06;5006039;28;20053;-78
2022/02/03 07:37:49;;;;;;;45.83;22.83;;;;;;;0.77;53.04;99505.69;5012130;28;20041;-79
2022/02/03 07:40:16;;;;;;;41.50;22.52;;;;;;;0.74;53.52;99468.03;4975340;28;20049;-78
2022/02/03 07:42:45;;;;;;;42.88;21.55;;;;;;;1.45;54.11;99491.09;5006294;28;20037;-78
2022/02/03 07:45:11;;;;;;;40.47;20.05;;;;;;;1.84;54.00;99476.56;5011237;28;20084;-76
2022/02/03 07:47:52;;;;;;;41.50;20.48;;;;;;;2.21;53.30;99482.44;5029764;28;20076;-81
2022/02/03 07:50:18;;;;;;;39.28;21.13;;;;;;;2.22;53.16;99461.06;4991702;28;20038;-79
2022/02/03 07:52:46;;;;;;;41.13;20.67;;;;;;;2.27;52.28;99492.84;4992054;28;20049;-76
2022/02/03 07:55:12;;;;;;;40.85;21.35;;;;;;;2.25;52.39;99486.81;5036173;28;20045;-78
2022/02/03 07:57:50;;;;;;;39.78;21.55;;;;;;;2.06;52.12;99478.75;4993285;28;20107;-79
2022/02/03 08:00:18;;;;;;;40.08;21.27;;;;;;;1.93;50.98;99513.53;4998569;28;20517;-79
2022/02/03 08:02:44;;;;;;;41.65;23.00;;;;;;;1.76;51.74;99509.75;4992930;28;20037;-78
2022/02/03 08:05:13;;;;;;;42.00;23.35;;;;;;;1.33;51.33;99482.25;4997401;28;20966;-78
2022/02/03 08:08:01;;;;;;;50.22;24.92;;;;;;;1.04;51.32;99509.75;4999585;28;20033;-77
2022/02/03 08:10:35;;;;;;;50.75;24.98;;;;;;;0.78;52.49;99474.09;4999214;28;20044;-78
2022/02/03 08:13:04;;;;;;;44.80;24.33;;;;;;;0.91;51.69;99500.91;5023431;28;20037;-81
2022/02/03 08:15:31;;;;;;;43.30;21.40;;;;;;;0.82;51.45;99495.56;5022671;28;20061;-76
2022/02/03 08:18:03;;;;;;;41.28;20.85;;;;;;;0.71;51.72;99487.59;5003717;28;20084;-79
2022/02/03 08:20:29;;;;;;;35.42;18.67;;;;;;;0.89;52.05;99505.09;5022799;28;20056;-76
2022/02/03 08:25:52;;;;;;;34.17;17.17;;;;;;;0.86;52.23;99487.97;4985622;28;20104;-78
2022/02/03 08:31:06;;;;;;;34.03;18.88;;;;;;;0.87;51.63;99486.28;5020804;28;20099;-79
2022/02/03 08:33:33;;;;;;;37.38;18.90;;;;;;;0.86;51.71;99512.75;5002695;28;20049;-77
2022/02/03 08:36:02;;;;;;;43.53;21.77;;;;;;;0.82;51.96;99490.44;5012475;28;20164;-76
2022/02/03 08:41:01;;;;;;;44.97;22.30;;;;;;;1.37;51.69;99514.00;5020707;28;20048;-78
2022/02/03 08:43:30;;;;;;;46.00;21.15;;;;;;;1.45;51.37;99514.16;5003387;28;20416;-77
2022/02/03 08:45:58;;;;;;;44.17;21.10;;;;;;;1.47;51.63;99507.38;5004989;28;20037;-78
2022/02/03 08:48:24;;;;;;;40.10;19.50;;;;;;;1.65;51.28;99512.06;5022651;28;20041;-78
2022/02/03 08:50:50;;;;;;;39.42;20.30;;;;;;;1.68;51.30;99516.41;5021760;28;20235;-80
2022/02/03 08:53:42;;;;;;;37.88;19.13;;;;;;;1.53;51.40;99496.38;5022552;28;20534;-80
2022/02/03 09:44:58;;;;;;;29.30;14.27;;;;;;;0.53;52.63;99495.66;5015329;28;20053;-77
2022/02/03 09:58:38;;;;;;;27.10;13.05;;;;;;;0.99;51.29;99429.38;5008029;28;20133;-77
2022/02/03 10:01:54;;;;;;;28.20;14.20;;;;;;;1.56;50.73;99530.66;5015803;28;20041;-78
2022/02/03 10:04:47;;;;;;;31.45;14.38;;;;;;;1.49;51.38;99504.00;5021676;28;20389;-79
2022/02/03 10:11:33;;;;;;;26.08;12.88;;;;;;;0.03;50.45;99314.31;4969732;28;20052;-79
2022/02/03 10:14:09;;;;;;;22.95;12.57;;;;;;;0.83;50.62;99436.66;5004826;28;20041;-78
2022/02/03 10:16:56;;;;;;;28.45;13.90;;;;;;;0.22;51.36;99359.19;4995425;28;20041;-77
2022/02/03 10:19:46;;;;;;;28.83;13.68;;;;;;;0.78;51.79;99427.97;5011663;28;20072;-76
2022/02/03 10:22:24;;;;;;;26.77;13.15;;;;;;;1.01;50.18;99476.38;4979805;28;20041;-78
2022/02/03 10:24:52;;;;;;;29.83;14.30;;;;;;;1.09;51.36;99490.25;4998032;28;20040;-76
2022/02/03 10:27:24;;;;;;;29.45;14.43;;;;;;;0.89;51.12;99457.31;4992253;28;20034;-78
2022/02/03 10:30:33;;;;;;;27.02;12.88;;;;;;;0.88;51.07;99491.44;4988549;28;20151;-78
2022/02/03 10:33:01;;;;;;;28.42;13.75;;;;;;;0.33;50.03;99492.56;5026354;28;20073;-77
2022/02/03 10:49:22;;;;;;;31.70;15.00;;;;;;;0.41;52.11;99483.38;4999902;28;20065;-77
2022/02/03 11:00:12;;;;;;;28.33;13.57;;;;;;;1.22;51.64;99493.09;5024256;28;20041;-75
2022/02/03 11:08:08;;;;;;;33.28;15.15;;;;;;;1.11;51.85;99465.53;5020542;28;20037;-76
2022/02/03 11:10:38;;;;;;;29.08;14.55;;;;;;;1.57;52.21;99505.88;5013641;28;20092;-78
2022/02/03 11:13:05;;;;;;;25.27;14.27;;;;;;;1.54;51.80;99490.44;5022777;28;20056;-78
2022/02/03 11:15:34;;;;;;;24.95;13.35;;;;;;;1.39;52.12;99455.91;4996143;28;20057;-77
2022/02/03 11:18:07;;;;;;;26.60;14.98;;;;;;;1.52;51.96;99485.28;4990657;28;20038;-77
2022/02/03 11:20:39;;;;;;;28.55;14.98;;;;;;;1.71;51.78;99519.88;5012151;28;20049;-77
2022/02/03 11:36:55;;;;;;;31.35;14.60;;;;;;;1.42;52.06;99494.47;5027375;28;20060;-78
2022/02/03 12:04:33;;;;;;;31.00;13.95;;;;;;;0.33;52.69;99529.25;5029833;28;20094;-77
2022/02/03 12:15:48;;;;;;;30.00;13.65;;;;;;;-0.04;53.32;99508.59;5009669;28;20506;-79
2022/02/03 12:19:00;;;;;;;30.85;12.57;;;;;;;-0.09;53.46;99532.31;5010070;28;20710;-77
2022/02/03 12:21:33;;;;;;;30.20;14.65;;;;;;;-0.39;53.04;99508.41;4996419;28;20041;-77
2022/02/03 12:24:33;;;;;;;28.92;12.98;;;;;;;-0.39;53.94;99513.53;5030138;28;20045;-75
2022/02/03 12:27:15;;;;;;;27.83;12.68;;;;;;;-0.41;53.60;99519.41;5016055;28;20096;-79
2022/02/03 12:40:43;;;;;;;29.25;14.02;;;;;;;-0.77;54.63;99528.50;4988503;28;20140;-77
2022/02/03 12:45:41;;;;;;;33.15;14.60;;;;;;;-0.76;54.13;99513.22;5007468;28;20226;-76
2022/02/03 12:48:08;;;;;;;33.08;14.05;;;;;;;-0.86;54.49;99505.22;5028734;28;20057;-78
2022/02/03 12:50:37;;;;;;;32.63;14.00;;;;;;;-0.72;55.36;99523.56;5032464;28;20087;-78
2022/02/03 12:53:05;;;;;;;32.72;14.32;;;;;;;-0.56;55.13;99530.88;5013710;28;20056;-78
2022/02/03 12:55:39;;;;;;;32.20;15.80;;;;;;;-0.64;55.17;99525.53;5010328;28;20037;-78
2022/02/03 12:58:15;;;;;;;30.65;14.15;;;;;;;-0.70;55.33;99538.13;5029822;28;20052;-78
2022/02/03 13:00:48;;;;;;;30.42;13.40;;;;;;;-0.73;55.40;99530.34;5014605;28;20045;-76
2022/02/03 13:03:16;;;;;;;28.90;13.65;;;;;;;-0.73;55.64;99539.72;5026468;28;20103;-81
2022/02/03 13:05:56;;;;;;;27.48;12.90;;;;;;;-0.79;55.58;99527.59;5013883;28;20042;-82
2022/02/03 13:08:47;;;;;;;31.85;14.27;;;;;;;-1.08;55.30;99535.16;4996888;28;20106;-80
2022/02/03 13:11:23;;;;;;;34.53;15.25;;;;;;;-1.27;55.81;99508.13;5013485;28;20065;-81
2022/02/03 13:14:22;;;;;;;34.42;13.60;;;;;;;-1.59;55.79;99477.25;5010684;28;20044;-79
2022/02/03 13:17:08;;;;;;;33.22;14.98;;;;;;;-1.44;56.05;99500.75;4995783;28;20477;-77
2022/02/03 13:22:42;;;;;;;38.85;16.10;;;;;;;-0.97;56.13;99527.88;5029855;28;20294;-81
2022/02/03 13:30:57;;;;;;;;;;;;;;;-0.88;56.16;99533.25;5009970;28;20072;-79
2022/02/03 13:33:41;;;;;;;31.00;12.88;;;;;;;-1.62;56.70;99439.72;5027615;28;19971;-77
2022/02/03 13:36:20;;;;;;;26.25;12.20;;;;;;;-1.24;56.29;99544.88;5015136;28;20060;-77
2022/02/03 13:39:10;;;;;;;26.33;12.88;;;;;;;-1.48;56.34;99495.50;5009109;28;20128;-78
2022/02/03 13:41:40;;;;;;;31.45;13.43;;;;;;;-1.21;56.76;99541.53;4995622;28;20041;-79
2022/02/03 13:45:08;;;;;;;26.60;12.52;;;;;;;-1.11;56.71;99535.06;4998123;28;20540;-79
2022/02/03 13:48:53;;;;;;;33.08;13.68;;;;;;;-1.54;56.74;99473.16;4917744;29;20107;-80
2022/02/03 13:51:15;;;;;;;34.80;14.95;;;;;;;-0.99;57.05;99538.00;4907793;28;20077;-78
2022/02/03 13:53:48;;;;;;;39.15;16.40;;;;;;;-1.00;56.98;99530.31;5008981;28;20045;-78
2022/02/03 14:21:20;;;;;;;38.58;17.42;;;;;;;-2.08;58.20;99515.50;5027886;28;20151;-76
2022/02/03 14:29:23;;;;;;;54.08;22.35;;;;;;;-1.95;58.11;99547.41;4998347;28;20442;-77
2022/02/03 14:32:03;;;;;;;53.58;23.35;;;;;;;-2.08;58.61;99548.63;4983959;28;20091;-74
2022/02/03 14:34:31;;;;;;;53.28;22.67;;;;;;;-2.16;58.92;99534.72;5013031;28;20080;-74
2022/02/03 14:39:48;;;;;;;64.07;28.35;;;;;;;-2.06;59.58;99544.47;5010013;28;20580;-75
2022/02/03 14:42:15;;;;;;;66.57;28.42;;;;;;;-2.10;58.35;99554.50;5011994;28;20135;-76
2022/02/03 14:44:41;;;;;;;60.58;27.63;;;;;;;-2.31;59.07;99555.38;5028832;28;20049;-76
2022/02/03 14:47:08;;;;;;;66.25;27.08;;;;;;;-2.35;59.92;99556.97;5013426;28;20895;-76
2022/02/03 14:49:35;;;;;;;67.80;27.50;;;;;;;-2.37;59.45;99561.13;5028425;28;20127;-76
2022/02/03 14:52:22;;;;;;;67.72;27.58;;;;;;;-2.66;59.31;99553.22;4989010;28;20052;-76
2022/02/03 15:00:24;;;;;;;64.38;26.73;;;;;;;-2.75;60.24;99571.50;5008415;28;20049;-74
2022/02/03 15:02:50;;;;;;;61.67;26.77;;;;;;;-2.57;61.08;99555.25;5006752;28;20048;-78
2022/02/03 15:05:24;;;;;;;70.40;28.17;;;;;;;-2.44;61.30;99551.50;4998260;28;20414;-79
2022/02/03 15:07:57;;;;;;;63.58;26.00;;;;;;;-2.65;60.68;99523.50;5030088;28;20564;-78
2022/02/03 15:10:45;;;;;;;66.07;26.90;;;;;;;-2.60;59.63;99565.31;4989124;28;20056;-78
2022/02/03 15:15:42;;;;;;;61.65;26.58;;;;;;;-2.59;60.78;99561.97;4988302;28;20048;-78
2022/02/03 15:18:08;;;;;;;56.47;22.88;;;;;;;-2.62;59.23;99570.34;4983867;28;20038;-75
2022/02/03 15:20:36;;;;;;;61.08;26.65;;;;;;;-2.73;60.79;99563.94;5009381;28;20103;-78
2022/02/03 15:23:06;;;;;;;64.22;27.10;;;;;;;-2.69;60.40;99552.19;5008005;28;20038;-76
2022/02/03 15:25:33;;;;;;;63.33;28.50;;;;;;;-2.70;61.12;99568.28;4978703;28;20033;-78
2022/02/03 15:28:01;;;;;;;57.83;24.15;;;;;;;-3.07;60.36;99555.78;5012424;28;20048;-78
2022/02/03 15:30:30;;;;;;;58.13;24.20;;;;;;;-3.19;60.63;99573.06;5025258;28;20631;-80
2022/02/03 15:32:59;;;;;;;58.20;24.33;;;;;;;-3.23;60.86;99581.41;4997140;28;20037;-79
2022/02/03 15:35:31;;;;;;;50.67;22.33;;;;;;;-3.37;61.23;99562.97;5010749;28;20365;-81
2022/02/03 15:38:18;;;;;;;53.63;22.85;;;;;;;-3.39;61.36;99555.25;4996799;28;20033;-80
2022/02/03 15:40:44;;;;;;;58.58;24.17;;;;;;;-3.38;62.09;99546.81;5010522;28;20048;-77
2022/02/03 15:45:54;;;;;;;49.50;21.33;;;;;;;-3.57;61.77;99488.31;5026942;28;20056;-80
2022/02/03 15:51:12;;;;;;;58.67;24.80;;;;;;;-4.27;61.66;99414.13;5026729;28;20096;-76
2022/02/03 16:01:39;;;;;;;57.33;22.52;;;;;;;-3.82;60.84;99571.19;5028115;28;20127;-79
2022/02/03 16:17:22;;;;;;;64.25;24.67;;;;;;;-3.69;62.47;99596.38;5031911;28;20048;-77
2022/02/03 16:22:27;;;;;;;59.78;24.23;;;;;;;-3.33;63.21;99601.34;5013961;28;20052;-77
2022/02/03 16:25:09;;;;;;;50.13;21.40;;;;;;;-3.22;63.15;99600.97;5007663;28;20106;-80
2022/02/03 16:42:22;;;;;;;53.08;22.05;;;;;;;-3.64;62.33;99599.13;4973284;28;20058;-77
2022/02/03 16:50:51;;;;;;;53.35;22.00;;;;;;;-3.66;62.99;99581.25;4990971;28;20109;-77
2022/02/03 16:52:39;;;;;;;57.67;23.50;;;;;;;-3.71;63.19;99552.19;4990600;28;20087;-81
2022/02/03 16:55:10;;;;;;;57.20;23.58;;;;;;;-3.46;63.20;99566.00;4978888;28;20057;-81
2022/02/03 16:57:37;;;;;;;58.35;22.30;;;;;;;-3.23;63.22;99586.50;4981543;28;20068;-78
2022/02/03 17:00:09;;;;;;;58.78;23.63;;;;;;;-3.39;63.07;99547.63;4999272;28;20056;-78
2022/02/03 17:02:35;;;;;;;61.58;23.70;;;;;;;-3.46;63.01;99521.84;5034734;28;20040;-79
2022/02/03 17:05:02;;;;;;;70.05;25.15;;;;;;;-3.13;62.90;99580.97;5033969;28;20044;-80
2022/02/03 17:07:29;;;;;;;57.63;24.20;;;;;;;-3.24;62.78;99541.47;5008051;28;20037;-82
2022/02/03 17:09:58;;;;;;;64.68;24.73;;;;;;;-3.51;62.68;99514.03;5014084;28;20033;-79
2022/02/03 17:12:24;;;;;;;64.18;26.75;;;;;;;-3.55;62.57;99509.63;5020087;28;20052;-77
2022/02/03 17:14:54;;;;;;;65.30;23.77;;;;;;;-4.47;61.41;99403.94;4986377;28;20057;-79
2022/02/03 17:17:20;;;;;;;66.25;25.60;;;;;;;-3.58;61.85;99594.31;5007353;28;20073;-83
2022/02/03 17:19:50;;;;;;;64.80;24.33;;;;;;;-4.24;62.42;99491.38;5013077;28;20060;-82
2022/02/03 17:22:26;;;;;;;56.20;23.92;;;;;;;-4.01;61.64;99557.63;5019083;28;20068;-79
2022/02/03 17:25:08;;;;;;;62.42;24.77;;;;;;;-4.09;63.08;99544.56;5016262;28;20053;-80
2022/02/03 17:27:49;;;;;;;57.03;23.63;;;;;;;-3.79;62.79;99576.41;5030905;28;20053;-84
2022/02/03 17:30:24;;;;;;;64.75;22.60;;;;;;;-4.26;63.20;99505.66;5015653;28;20079;-81
2022/02/03 18:03:14;;;;;;;50.90;22.27;;;;;;;-3.33;64.00;99575.03;5010776;28;20041;-78
2022/02/03 18:06:26;;;;;;;56.85;22.42;;;;;;;-3.72;63.44;99513.97;5021836;28;20105;-80
2022/02/03 18:11:24;;;;;;;59.38;24.45;;;;;;;-4.14;63.72;99428.25;5024938;28;20063;-78
2022/02/03 18:36:27;;;;;;;54.17;22.10;;;;;;;-4.30;63.72;99409.75;5004477;28;20074;-76
2022/02/03 18:50:14;;;;;;;56.85;24.15;;;;;;;-3.98;62.64;99481.50;5032896;28;20038;-80
2022/02/03 18:56:05;;;;;;;63.13;23.92;;;;;;;-3.40;63.57;99573.03;5036513;28;20041;-81
2022/02/03 18:58:38;;;;;;;55.03;21.58;;;;;;;-3.46;62.32;99577.84;5018083;28;20101;-81
2022/02/03 19:24:36;;;;;;;48.25;18.27;;;;;;;-4.00;64.79;99571.22;5017808;28;20112;-78
2022/02/03 19:27:21;;;;;;;45.45;17.75;;;;;;;-4.18;64.12;99531.44;4986418;28;20406;-78
2022/02/03 20:05:42;;;;;;;42.00;16.70;;;;;;;-3.34;64.11;99571.59;5003628;28;20034;-76
2022/02/03 20:08:35;;;;;;;41.45;16.58;;;;;;;-3.97;64.21;99462.91;5014647;28;20030;-77
2022/02/03 20:11:04;;;;;;;41.78;16.92;;;;;;;-4.22;63.75;99414.34;5009285;28;20049;-77
2022/02/03 20:14:12;;;;;;;43.00;17.50;;;;;;;-3.93;63.95;99446.09;5030515;28;20033;-81
2022/02/03 20:16:44;;;;;;;43.28;17.70;;;;;;;-3.75;63.88;99466.38;5038303;28;20037;-79
2022/02/03 20:19:11;;;;;;;42.70;17.30;;;;;;;-3.43;63.76;99522.88;5013632;28;20044;-77
2022/02/03 20:21:40;;;;;;;40.75;17.63;;;;;;;-3.24;63.91;99564.38;5016455;28;20049;-80
2022/02/03 20:24:07;;;;;;;43.30;17.13;;;;;;;-3.26;63.61;99555.81;4993936;28;20045;-75
2022/02/03 20:26:34;;;;;;;48.05;19.45;;;;;;;-3.10;63.51;99577.72;5002756;28;20046;-78
2022/02/03 20:29:05;;;;;;;39.53;17.88;;;;;;;-3.78;63.67;99463.69;5014422;28;20037;-75
2022/02/03 20:31:32;;;;;;;48.27;18.97;;;;;;;-3.37;63.73;99533.31;4990054;28;20065;-78
2022/02/03 20:33:59;;;;;;;43.60;18.92;;;;;;;-3.10;63.81;99568.38;4996935;28;20513;-81
2022/02/03 20:36:30;;;;;;;46.72;18.73;;;;;;;-3.29;63.31;99545.50;5031406;28;20124;-77
2022/02/03 20:38:56;;;;;;;45.25;19.10;;;;;;;-3.40;63.76;99528.06;5000116;28;20037;-82
2022/02/03 20:41:28;;;;;;;47.22;19.52;;;;;;;-3.25;63.33;99532.09;5016167;28;20117;-79
2022/02/03 20:43:54;;;;;;;48.25;19.45;;;;;;;-3.06;63.53;99554.97;4987238;28;20555;-79
2022/02/03 20:46:22;;;;;;;48.85;18.98;;;;;;;-3.04;63.56;99542.28;5014798;28;20101;-81
2022/02/03 20:48:49;;;;;;;52.35;19.35;;;;;;;-2.82;63.69;99577.19;4986522;28;20037;-76
2022/02/03 20:51:18;;;;;;;40.88;17.67;;;;;;;-2.93;63.48;99555.47;5017005;28;20453;-80
2022/02/03 20:53:45;;;;;;;46.50;18.83;;;;;;;-2.80;63.41;99567.94;5018486;28;20048;-80
2022/02/03 20:56:17;;;;;;;48.25;19.00;;;;;;;-2.68;63.47;99575.19;5016934;28;20492;-80
2022/02/03 20:58:43;;;;;;;47.45;19.05;;;;;;;-2.87;63.46;99540.44;5008211;28;20052;-79
2022/02/03 21:04:12;;;;;;;47.92;20.88;;;;;;;-2.60;62.96;99572.97;4987793;28;20051;-79
2022/02/03 21:06:38;;;;;;;44.90;19.80;;;;;;;-2.53;63.53;99574.94;4997604;28;20046;-79
2022/02/03 21:09:07;;;;;;;66.15;26.67;;;;;;;-2.69;62.86;99559.84;5008300;28;20095;-79
2022/02/03 21:11:32;;;;;;;78.57;28.23;;;;;;;-2.68;63.04;99551.38;4997404;28;20504;-78
2022/02/03 21:14:01;;;;;;;103.97;37.25;;;;;;;-2.61;62.82;99563.56;5022016;28;20068;-80
2022/02/03 21:16:28;;;;;;;65.93;27.40;;;;;;;-2.60;62.80;99571.25;5010239;28;20136;-79
2022/02/03 21:19:26;;;;;;;59.47;23.92;;;;;;;-2.49;63.30;99568.28;5007287;28;20046;-79
2022/02/03 21:22:00;;;;;;;54.88;23.13;;;;;;;-2.74;62.45;99540.13;5000392;28;20042;-80
2022/02/03 21:24:26;;;;;;;50.13;20.15;;;;;;;-2.88;62.52;99533.63;5022506;28;20132;-80
2022/02/03 21:27:04;;;;;;;44.17;18.40;;;;;;;-2.67;62.85;99588.78;5005571;28;20136;-78
2022/02/03 21:29:39;;;;;;;40.10;17.70;;;;;;;-3.18;62.68;99504.41;5006158;28;20567;-79
2022/02/03 21:32:05;;;;;;;44.20;17.85;;;;;;;-2.81;62.74;99570.38;4974159;28;20049;-79
2022/02/03 21:34:31;;;;;;;43.72;17.08;;;;;;;-3.10;62.41;99536.97;5024380;28;20058;-81
2022/02/03 21:36:56;;;;;;;47.30;18.98;;;;;;;-2.83;62.58;99580.53;5025212;28;20061;-78
2022/02/03 21:39:22;;;;;;;44.67;19.13;;;;;;;-2.89;62.80;99563.31;4992273;28;20608;-79
2022/02/03 21:41:48;;;;;;;46.15;19.23;;;;;;;-2.85;62.50;99582.13;4990353;28;20053;-78
2022/02/03 21:44:15;;;;;;;33.63;14.73;;;;;;;-2.89;62.86;99572.63;5020805;28;20068;-77
2022/02/03 21:46:44;;;;;;;42.05;16.63;;;;;;;-2.99;62.83;99548.47;5021526;28;20117;-79
2022/02/03 21:49:11;;;;;;;43.53;17.02;;;;;;;-2.87;62.16;99573.56;4979392;28;20528;-81
2022/02/03 21:51:42;;;;;;;51.33;16.83;;;;;;;-3.05;62.78;99543.97;5026427;28;20052;-79
2022/02/03 21:54:10;;;;;;;40.60;17.45;;;;;;;-2.98;63.61;99544.25;5026873;28;20038;-77
2022/02/03 21:56:36;;;;;;;34.92;16.48;;;;;;;-2.77;62.82;99582.44;5008509;28;20057;-77
2022/02/03 21:59:07;;;;;;;42.78;16.40;;;;;;;-2.89;62.83;99558.22;4995773;28;20037;-80
2022/02/03 22:01:36;;;;;;;49.50;20.75;;;;;;;-2.81;62.95;99567.84;5007679;28;20136;-79
2022/02/03 22:04:02;;;;;;;57.85;22.50;;;;;;;-2.70;62.74;99581.03;5008806;28;20167;-82
2022/02/03 22:06:28;;;;;;;62.28;23.50;;;;;;;-2.99;62.58;99548.47;5010171;28;20152;-80
2022/02/03 22:08:53;;;;;;;52.25;22.85;;;;;;;-2.91;62.58;99564.94;5029545;28;20029;-78
2022/02/03 22:11:30;;;;;;;59.58;24.35;;;;;;;-3.14;62.72;99533.41;5030747;28;20040;-79
2022/02/03 22:14:06;;;;;;;54.65;23.52;;;;;;;-2.93;62.62;99576.72;5000711;28;20099;-77
2022/02/03 22:16:34;;;;;;;63.10;25.38;;;;;;;-3.10;62.59;99550.56;4998952;28;20041;-77
2022/02/03 22:19:01;;;;;;;53.78;23.55;;;;;;;-3.33;62.71;99522.44;5024178;28;20045;-77
2022/02/03 22:24:22;;;;;;;45.17;20.38;;;;;;;-3.33;62.64;99522.44;5021660;28;20102;-77
2022/02/03 22:45:25;;;;;;;45.90;18.48;;;;;;;-3.36;63.00;99555.41;5046437;28;20046;-76
2022/02/03 22:48:23;;;;;;;49.22;19.42;;;;;;;-3.15;63.05;99564.75;5028950;28;20037;-80
2022/02/03 22:50:50;;;;;;;51.92;18.73;;;;;;;-3.12;62.85;99552.16;5004038;28;20492;-76
2022/02/03 22:53:15;;;;;;;48.80;19.30;;;;;;;-3.17;63.03;99548.53;5037732;28;20037;-79
2022/02/03 22:55:41;;;;;;;49.92;20.23;;;;;;;-3.06;62.65;99561.72;5017773;28;20139;-80
2022/02/03 23:00:59;;;;;;;47.88;19.58;;;;;;;-3.16;62.99;99536.69;4962877;28;20087;-77
2022/02/03 23:03:29;;;;;;;48.47;20.48;;;;;;;-3.00;62.96;99558.59;5024315;28;20041;-78
2022/02/03 23:05:56;;;;;;;51.83;20.95;;;;;;;-2.98;63.23;99555.28;5000825;28;20057;-77
2022/02/03 23:08:31;;;;;;;47.90;19.88;;;;;;;-2.96;62.81;99557.88;4994503;28;20049;-77